Time;durP1;ratioP1;P1;durP2;ratioP2;P2;SDS_P1;SDS_P2;PMS_P1;PMS_P2;Temp;Humidity;BMP_temperature;BMP_pressure;BME280_temperature;BME280_humidity;BME280_pressure;Samples;Min_cycle;Max_cycle;Signal;HPM_P1;HPM_P2
2023/05/27 00:00:09;;;;;;;6.10;5.75;;;;;;;;;;4245190;28;20045;-58
2023/05/27 00:02:29;;;;;;;4.55;4.07;;;;;;;;;;4237633;28;20051;-59
2023/05/27 00:04:50;;;;;;;9.23;6.07;;;;;;;;;;4237800;28;20262;-58
2023/05/27 00:07:10;;;;;;;5.82;5.72;;;;;;;;;;4243652;28;20116;-58
2023/05/27 00:09:30;;;;;;;5.88;5.72;;;;;;;;;;4246214;28;20396;-58
2023/05/27 00:11:51;;;;;;;5.95;5.75;;;;;;;;;;4237355;28;20081;-58
2023/05/27 00:14:11;;;;;;;5.20;5.07;;;;;;;;;;4242246;28;20305;-58
2023/05/27 00:16:35;;;;;;;7.32;6.82;;;;;;;;;;4246369;28;20089;-58
2023/05/27 00:18:55;;;;;;;6.18;5.95;;;;;;;;;;4240854;28;20107;-58
2023/05/27 00:21:16;;;;;;;5.35;5.15;;;;;;;;;;4235266;28;20053;-58
2023/05/27 00:23:36;;;;;;;6.20;5.90;;;;;;;;;;4248787;28;20051;-58
2023/05/27 00:25:56;;;;;;;5.53;5.40;;;;;;;;;;4241018;28;20053;-58
2023/05/27 00:28:18;;;;;;;5.57;5.30;;;;;;;;;;4235425;28;20254;-58
2023/05/27 00:30:38;;;;;;;4.70;4.60;;;;;;;;;;4237014;28;20089;-59
2023/05/27 00:32:58;;;;;;;5.78;5.47;;;;;;;;;;4252607;28;20045;-58
2023/05/27 00:35:18;;;;;;;5.30;5.20;;;;;;;;;;4251206;28;20046;-59
2023/05/27 00:37:39;;;;;;;6.25;6.15;;;;;;;;;;4249778;28;20065;-58
2023/05/27 00:39:59;;;;;;;7.03;6.70;;;;;;;;;;4245187;28;20370;-58
2023/05/27 00:42:20;;;;;;;6.07;5.88;;;;;;;;;;4248939;28;20093;-58
2023/05/27 00:44:41;;;;;;;7.18;6.90;;;;;;;;;;4245939;28;20050;-59
2023/05/27 00:47:01;;;;;;;6.00;5.80;;;;;;;;;;4243764;28;20042;-58
2023/05/27 00:49:25;;;;;;;5.72;5.55;;;;;;;;;;4245409;28;20038;-58
2023/05/27 00:51:45;;;;;;;6.20;6.10;;;;;;;;;;4245213;28;20049;-58
2023/05/27 00:54:06;;;;;;;5.72;5.32;;;;;;;;;;4240106;27;20046;-58
2023/05/27 00:56:26;;;;;;;6.45;6.35;;;;;;;;;;4254309;27;20112;-59
2023/05/27 00:58:47;;;;;;;5.88;5.72;;;;;;;;;;4244612;28;20066;-59
2023/05/27 01:01:07;;;;;;;6.35;5.93;;;;;;;;;;4238372;28;20050;-60
2023/05/27 01:03:28;;;;;;;6.82;6.55;;;;;;;;;;4236851;28;20152;-60
2023/05/27 01:05:49;;;;;;;5.53;5.25;;;;;;;;;;4236526;28;20411;-60
2023/05/27 01:08:31;;;;;;;5.72;5.45;;;;;;;;;;4240329;28;20042;-60
2023/05/27 01:10:53;;;;;;;5.57;5.38;;;;;;;;;;4235680;28;20083;-60
2023/05/27 01:13:35;;;;;;;6.35;6.15;;;;;;;;;;4234658;28;20085;-59
2023/05/27 01:15:58;;;;;;;7.00;6.47;;;;;;;;;;4243554;28;20234;-60
2023/05/27 01:18:20;;;;;;;8.77;6.72;;;;;;;;;;4241189;28;20273;-60
2023/05/27 01:20:43;;;;;;;6.13;5.72;;;;;;;;;;4241544;28;20085;-60
2023/05/27 01:23:04;;;;;;;6.70;6.18;;;;;;;;;;4241687;28;20280;-60
2023/05/27 01:25:24;;;;;;;6.90;6.20;;;;;;;;;;4239313;28;20058;-60
2023/05/27 01:27:45;;;;;;;9.70;6.60;;;;;;;;;;4236611;28;20054;-60
2023/05/27 01:30:05;;;;;;;7.32;7.03;;;;;;;;;;4239938;28;20051;-59
2023/05/27 01:32:30;;;;;;;6.50;6.30;;;;;;;;;;4236361;28;20074;-60
2023/05/27 01:34:56;;;;;;;5.82;5.53;;;;;;;;;;4242845;28;20086;-59
2023/05/27 01:37:18;;;;;;;6.43;6.03;;;;;;;;;;4241530;28;20097;-60
2023/05/27 01:39:38;;;;;;;5.38;5.18;;;;;;;;;;4238128;28;20086;-60
2023/05/27 01:42:01;;;;;;;5.57;5.28;;;;;;;;;;4234328;28;20101;-60
2023/05/27 01:44:22;;;;;;;6.43;6.00;;;;;;;;;;4237248;28;20045;-60
2023/05/27 01:46:42;;;;;;;6.00;5.88;;;;;;;;;;4238604;28;20081;-60
2023/05/27 01:49:03;;;;;;;5.38;5.28;;;;;;;;;;4233711;28;20057;-60
2023/05/27 01:51:24;;;;;;;6.82;6.47;;;;;;;;;;4230247;28;20096;-60
2023/05/27 01:53:44;;;;;;;6.03;5.82;;;;;;;;;;4237630;28;20055;-59
2023/05/27 01:56:04;;;;;;;7.70;7.05;;;;;;;;;;4237993;28;20153;-60
2023/05/27 01:58:25;;;;;;;5.65;5.28;;;;;;;;;;4234869;28;20270;-60
2023/05/27 02:00:45;;;;;;;5.88;5.68;;;;;;;;;;4237201;28;20042;-60
2023/05/27 02:03:06;;;;;;;5.85;5.75;;;;;;;;;;4251435;28;20103;-60
2023/05/27 02:05:26;;;;;;;7.32;7.05;;;;;;;;;;4246586;27;20399;-60
2023/05/27 02:07:46;;;;;;;6.13;5.82;;;;;;;;;;4248957;28;20046;-60
2023/05/27 02:10:07;;;;;;;6.78;6.18;;;;;;;;;;4241875;28;20045;-59
2023/05/27 02:12:27;;;;;;;7.35;6.82;;;;;;;;;;4246123;28;20069;-60
2023/05/27 02:14:48;;;;;;;6.25;5.97;;;;;;;;;;4244529;28;20062;-60
2023/05/27 02:17:08;;;;;;;5.47;5.38;;;;;;;;;;4241971;28;20074;-60
2023/05/27 02:19:29;;;;;;;6.15;5.75;;;;;;;;;;4247324;28;20046;-60
2023/05/27 02:21:49;;;;;;;5.80;5.63;;;;;;;;;;4240214;28;20046;-60
2023/05/27 02:24:09;;;;;;;5.55;5.25;;;;;;;;;;4238817;28;20259;-60
2023/05/27 02:26:29;;;;;;;6.03;5.57;;;;;;;;;;4241640;28;20089;-60
2023/05/27 02:28:50;;;;;;;5.35;5.15;;;;;;;;;;4244132;28;20042;-60
2023/05/27 02:31:10;;;;;;;5.78;5.68;;;;;;;;;;4235630;28;20039;-60
2023/05/27 02:33:30;;;;;;;7.45;7.25;;;;;;;;;;4236508;28;20227;-60
2023/05/27 02:35:51;;;;;;;6.60;6.50;;;;;;;;;;4241871;28;20084;-60
2023/05/27 02:38:12;;;;;;;5.93;5.72;;;;;;;;;;4244587;28;20042;-59
2023/05/27 02:40:32;;;;;;;7.60;7.25;;;;;;;;;;4236358;27;20243;-60
2023/05/27 02:42:52;;;;;;;7.38;7.18;;;;;;;;;;4237441;28;20054;-60
2023/05/27 02:45:13;;;;;;;7.93;7.55;;;;;;;;;;4238733;28;20047;-60
2023/05/27 02:47:33;;;;;;;7.75;7.20;;;;;;;;;;4241338;28;20050;-60
2023/05/27 02:49:53;;;;;;;7.07;6.78;;;;;;;;;;4238732;28;20058;-60
2023/05/27 02:52:14;;;;;;;6.72;5.95;;;;;;;;;;4238284;28;20084;-60
2023/05/27 02:54:34;;;;;;;7.10;6.82;;;;;;;;;;4241788;28;20081;-59
2023/05/27 02:56:54;;;;;;;6.95;6.50;;;;;;;;;;4240344;28;20099;-59
2023/05/27 02:59:14;;;;;;;6.38;6.03;;;;;;;;;;4237605;28;20144;-60
2023/05/27 03:01:35;;;;;;;7.95;7.75;;;;;;;;;;4240124;28;20047;-59
2023/05/27 03:03:55;;;;;;;7.38;7.20;;;;;;;;;;4240782;28;20067;-60
2023/05/27 03:06:16;;;;;;;7.95;7.50;;;;;;;;;;4238286;28;20086;-60
2023/05/27 03:08:36;;;;;;;6.93;6.63;;;;;;;;;;4241947;28;20052;-59
2023/05/27 03:10:57;;;;;;;7.25;6.90;;;;;;;;;;4236455;28;20104;-60
2023/05/27 03:13:17;;;;;;;7.60;7.30;;;;;;;;;;4242331;28;20046;-60
2023/05/27 03:15:38;;;;;;;7.70;7.45;;;;;;;;;;4239047;28;20369;-59
2023/05/27 03:17:59;;;;;;;7.60;7.32;;;;;;;;;;4242790;28;20077;-60
2023/05/27 03:20:20;;;;;;;7.93;7.47;;;;;;;;;;4243713;28;20145;-59
2023/05/27 03:22:40;;;;;;;8.75;8.45;;;;;;;;;;4245073;28;20051;-59
2023/05/27 03:25:01;;;;;;;7.65;7.45;;;;;;;;;;4246603;28;20047;-60
2023/05/27 03:27:22;;;;;;;7.43;6.68;;;;;;;;;;4242385;28;20042;-60
2023/05/27 03:29:42;;;;;;;8.18;7.97;;;;;;;;;;4244558;28;20278;-60
2023/05/27 03:32:02;;;;;;;7.97;7.40;;;;;;;;;;4239681;28;20046;-60
2023/05/27 03:34:23;;;;;;;6.93;6.72;;;;;;;;;;4245908;28;20332;-60
2023/05/27 03:36:45;;;;;;;6.50;6.35;;;;;;;;;;4245914;28;20051;-60
2023/05/27 03:39:05;;;;;;;6.22;5.90;;;;;;;;;;4243856;28;20136;-59
2023/05/27 03:41:26;;;;;;;6.38;6.13;;;;;;;;;;4243957;28;20084;-60
2023/05/27 03:43:46;;;;;;;7.43;7.10;;;;;;;;;;4242329;28;20361;-60
2023/05/27 03:46:07;;;;;;;7.72;7.43;;;;;;;;;;4244129;28;20050;-60
2023/05/27 03:48:28;;;;;;;7.88;7.50;;;;;;;;;;4242608;28;20039;-60
2023/05/27 03:50:48;;;;;;;8.68;8.05;;;;;;;;;;4243430;28;20046;-60
2023/05/27 03:53:08;;;;;;;7.38;7.18;;;;;;;;;;4247425;28;20058;-60
2023/05/27 03:55:28;;;;;;;7.10;6.90;;;;;;;;;;4239641;28;20044;-60
2023/05/27 03:57:49;;;;;;;7.13;6.93;;;;;;;;;;4241725;28;20042;-60
2023/05/27 04:00:13;;;;;;;8.05;7.80;;;;;;;;;;4242054;28;20274;-59
2023/05/27 04:02:34;;;;;;;6.57;6.32;;;;;;;;;;4249482;28;20075;-60
2023/05/27 04:04:54;;;;;;;7.03;6.50;;;;;;;;;;4237551;28;20285;-60
2023/05/27 04:07:15;;;;;;;7.25;6.93;;;;;;;;;;4242864;28;20231;-60
2023/05/27 04:09:35;;;;;;;7.97;7.50;;;;;;;;;;4242470;28;20077;-60
2023/05/27 04:11:55;;;;;;;6.78;6.35;;;;;;;;;;4245394;28;20050;-60
2023/05/27 04:14:15;;;;;;;7.47;7.15;;;;;;;;;;4236353;28;20070;-59
2023/05/27 04:16:36;;;;;;;5.95;5.75;;;;;;;;;;4243974;28;20080;-59
2023/05/27 04:18:56;;;;;;;6.07;5.78;;;;;;;;;;4242547;28;20049;-60
2023/05/27 04:21:17;;;;;;;6.00;5.85;;;;;;;;;;4242948;28;20374;-59
2023/05/27 04:23:37;;;;;;;5.97;5.57;;;;;;;;;;4238850;28;20321;-59
2023/05/27 04:25:58;;;;;;;5.68;5.47;;;;;;;;;;4244168;28;20103;-60
2023/05/27 04:28:18;;;;;;;6.32;6.13;;;;;;;;;;4242998;28;20227;-60
2023/05/27 04:30:39;;;;;;;6.00;5.70;;;;;;;;;;4238203;28;20055;-60
2023/05/27 04:33:00;;;;;;;5.40;5.13;;;;;;;;;;4240323;28;20042;-60
2023/05/27 04:35:21;;;;;;;5.80;5.47;;;;;;;;;;4241356;28;20081;-60
2023/05/27 04:37:44;;;;;;;5.68;5.35;;;;;;;;;;4239992;28;20361;-60
2023/05/27 04:40:06;;;;;;;6.28;5.53;;;;;;;;;;4240861;27;20082;-59
2023/05/27 04:42:27;;;;;;;5.50;5.28;;;;;;;;;;4238198;28;20290;-59
2023/05/27 04:44:48;;;;;;;6.15;5.90;;;;;;;;;;4239151;28;20043;-60
2023/05/27 04:47:09;;;;;;;5.07;4.85;;;;;;;;;;4241798;28;20109;-60
2023/05/27 04:49:30;;;;;;;6.13;5.60;;;;;;;;;;4246469;28;20409;-60
2023/05/27 04:51:50;;;;;;;5.28;5.00;;;;;;;;;;4241242;28;20079;-60
2023/05/27 04:54:11;;;;;;;5.45;5.25;;;;;;;;;;4239338;28;20050;-60
2023/05/27 04:56:31;;;;;;;6.15;6.05;;;;;;;;;;4245341;28;20045;-60
2023/05/27 04:58:52;;;;;;;4.57;4.38;;;;;;;;;;4241038;28;20047;-60
2023/05/27 05:01:17;;;;;;;5.07;4.93;;;;;;;;;;4236203;28;20051;-60
2023/05/27 05:03:39;;;;;;;5.50;5.38;;;;;;;;;;4239259;28;20042;-60
2023/05/27 05:05:59;;;;;;;4.57;4.40;;;;;;;;;;4244409;28;20068;-59
2023/05/27 05:08:20;;;;;;;5.00;4.30;;;;;;;;;;4249733;28;20056;-59
2023/05/27 05:10:40;;;;;;;5.95;5.57;;;;;;;;;;4245268;28;20051;-60
2023/05/27 05:13:00;;;;;;;6.00;5.68;;;;;;;;;;4247301;28;20069;-60
2023/05/27 05:15:20;;;;;;;5.13;5.00;;;;;;;;;;4246937;28;20124;-60
2023/05/27 05:17:41;;;;;;;5.40;5.20;;;;;;;;;;4245080;28;20058;-59
2023/05/27 05:20:02;;;;;;;5.30;5.15;;;;;;;;;;4244030;28;20238;-60
2023/05/27 05:22:23;;;;;;;6.22;5.68;;;;;;;;;;4246046;28;20046;-60
2023/05/27 05:24:44;;;;;;;6.72;6.45;;;;;;;;;;4240827;28;20130;-59
2023/05/27 05:27:06;;;;;;;4.47;4.38;;;;;;;;;;4239747;28;20264;-60
2023/05/27 05:29:26;;;;;;;4.78;4.57;;;;;;;;;;4245141;28;20046;-59
2023/05/27 05:31:46;;;;;;;4.93;4.70;;;;;;;;;;4240933;28;20380;-59
2023/05/27 05:34:06;;;;;;;5.38;5.15;;;;;;;;;;4236256;28;20064;-60
2023/05/27 05:36:26;;;;;;;6.07;5.57;;;;;;;;;;4237600;28;20096;-60
2023/05/27 05:38:47;;;;;;;4.90;4.80;;;;;;;;;;4241355;28;20062;-60
2023/05/27 05:41:07;;;;;;;4.97;4.88;;;;;;;;;;4240539;27;20046;-59
2023/05/27 05:43:27;;;;;;;4.80;4.57;;;;;;;;;;4231493;28;20086;-59
2023/05/27 05:45:47;;;;;;;4.68;4.32;;;;;;;;;;4235849;28;20235;-59
2023/05/27 05:48:08;;;;;;;4.82;4.50;;;;;;;;;;4239077;28;20042;-60
2023/05/27 05:50:28;;;;;;;5.72;5.32;;;;;;;;;;4232517;28;20051;-59
2023/05/27 05:52:49;;;;;;;5.38;4.97;;;;;;;;;;4232633;28;20046;-59
2023/05/27 05:55:09;;;;;;;5.07;4.88;;;;;;;;;;4240161;28;20038;-59
2023/05/27 05:57:31;;;;;;;4.93;4.70;;;;;;;;;;4255200;27;20045;-60
2023/05/27 05:59:51;;;;;;;6.57;4.35;;;;;;;;;;4234710;28;20318;-59
2023/05/27 06:02:12;;;;;;;4.35;3.95;;;;;;;;;;4237447;28;20419;-60
2023/05/27 06:04:32;;;;;;;5.00;4.78;;;;;;;;;;4241919;28;20061;-59
2023/05/27 06:06:52;;;;;;;4.93;4.70;;;;;;;;;;4237429;28;20080;-59
2023/05/27 06:09:16;;;;;;;4.88;4.70;;;;;;;;;;4234185;28;20239;-59
2023/05/27 06:11:37;;;;;;;4.28;3.92;;;;;;;;;;4236893;28;20054;-59
2023/05/27 06:13:57;;;;;;;3.85;3.63;;;;;;;;;;4243008;28;20039;-59
2023/05/27 06:16:17;;;;;;;4.45;4.07;;;;;;;;;;4240625;28;20090;-59
2023/05/27 06:18:37;;;;;;;4.75;4.53;;;;;;;;;;4244895;28;20084;-59
2023/05/27 06:20:57;;;;;;;5.88;5.30;;;;;;;;;;4239440;28;20101;-59
2023/05/27 06:23:18;;;;;;;4.80;4.57;;;;;;;;;;4241339;28;20069;-59
2023/05/27 06:25:38;;;;;;;4.80;4.38;;;;;;;;;;4242760;28;20113;-59
2023/05/27 06:27:59;;;;;;;3.60;3.40;;;;;;;;;;4240458;28;20108;-59
2023/05/27 06:30:19;;;;;;;3.42;3.33;;;;;;;;;;4236843;28;20070;-59
2023/05/27 06:32:40;;;;;;;5.72;4.88;;;;;;;;;;4241461;28;20054;-60
2023/05/27 06:35:00;;;;;;;3.13;2.92;;;;;;;;;;4239458;28;20074;-60
2023/05/27 06:37:20;;;;;;;3.08;2.80;;;;;;;;;;4235709;28;20046;-60
2023/05/27 06:39:40;;;;;;;3.05;2.92;;;;;;;;;;4244192;28;20049;-59
2023/05/27 06:42:01;;;;;;;3.10;3.00;;;;;;;;;;4242800;28;20092;-59
2023/05/27 06:44:22;;;;;;;3.38;3.08;;;;;;;;;;4241791;28;20033;-59
2023/05/27 06:46:42;;;;;;;3.42;3.15;;;;;;;;;;4240920;28;20054;-59
2023/05/27 06:49:02;;;;;;;3.25;3.00;;;;;;;;;;4240889;28;20089;-60
2023/05/27 06:51:23;;;;;;;2.85;2.65;;;;;;;;;;4244884;27;20141;-59
2023/05/27 06:53:43;;;;;;;3.75;3.13;;;;;;;;;;4240239;28;20089;-60
2023/05/27 06:56:03;;;;;;;2.83;2.67;;;;;;;;;;4243658;28;20047;-60
2023/05/27 06:58:24;;;;;;;2.95;2.85;;;;;;;;;;4243982;28;20062;-59
2023/05/27 07:00:44;;;;;;;2.58;2.40;;;;;;;;;;4248846;28;20088;-59
2023/05/27 07:03:05;;;;;;;2.60;2.50;;;;;;;;;;4236139;28;20047;-59
2023/05/27 07:05:25;;;;;;;5.75;3.55;;;;;;;;;;4247201;28;20107;-59
2023/05/27 07:07:46;;;;;;;8.82;2.70;;;;;;;;;;4246178;28;20053;-59
2023/05/27 07:10:06;;;;;;;2.65;2.22;;;;;;;;;;4245673;28;20035;-60
2023/05/27 07:12:28;;;;;;;;;;;;;;;;;;4240621;28;20046;-59
2023/05/27 07:14:49;;;;;;;3.17;2.05;;;;;;;;;;4248186;28;19960;-60
2023/05/27 07:17:09;;;;;;;2.63;2.45;;;;;;;;;;4248475;28;20088;-60
2023/05/27 07:19:29;;;;;;;2.20;2.00;;;;;;;;;;4243125;28;20074;-59
2023/05/27 07:21:50;;;;;;;3.15;2.85;;;;;;;;;;4245584;28;20084;-59
2023/05/27 07:24:10;;;;;;;3.08;2.25;;;;;;;;;;4244430;28;20050;-59
2023/05/27 07:26:31;;;;;;;2.67;2.53;;;;;;;;;;4246789;28;20080;-59
2023/05/27 07:28:51;;;;;;;2.95;2.83;;;;;;;;;;4242252;28;20046;-60
2023/05/27 07:31:12;;;;;;;1.70;1.70;;;;;;;;;;4240806;28;20223;-60
2023/05/27 07:33:32;;;;;;;2.13;2.03;;;;;;;;;;4241160;28;20046;-59
2023/05/27 07:35:52;;;;;;;2.65;1.95;;;;;;;;;;4242496;28;20365;-59
2023/05/27 07:38:12;;;;;;;2.30;2.30;;;;;;;;;;4239127;28;20050;-60
2023/05/27 07:40:32;;;;;;;2.30;2.20;;;;;;;;;;4244233;27;20107;-60
2023/05/27 07:42:53;;;;;;;3.08;2.88;;;;;;;;;;4243548;28;20086;-59
2023/05/27 07:45:13;;;;;;;2.92;2.38;;;;;;;;;;4244645;28;20080;-59
2023/05/27 07:47:33;;;;;;;34.97;4.53;;;;;;;;;;4241596;28;20084;-59
2023/05/27 07:49:53;;;;;;;9.00;2.17;;;;;;;;;;4242087;28;20050;-59
2023/05/27 07:52:13;;;;;;;2.47;2.22;;;;;;;;;;4240418;28;20399;-60
2023/05/27 07:54:34;;;;;;;2.15;2.05;;;;;;;;;;4241992;28;20137;-60
2023/05/27 07:57:04;;;;;;;1.70;1.60;;;;;;;;;;4243404;28;20361;-60
2023/05/27 07:59:24;;;;;;;1.50;1.40;;;;;;;;;;4239636;28;20045;-60
2023/05/27 08:01:44;;;;;;;3.50;2.08;;;;;;;;;;4243555;28;20094;-60
2023/05/27 08:04:04;;;;;;;2.15;2.05;;;;;;;;;;4236760;28;20061;-59
2023/05/27 08:06:43;;;;;;;2.08;1.98;;;;;;;;;;4243934;28;20054;-60
2023/05/27 08:09:03;;;;;;;1.73;1.73;;;;;;;;;;4238080;28;20051;-60
2023/05/27 08:11:25;;;;;;;2.35;1.77;;;;;;;;;;4244557;28;20066;-60
2023/05/27 08:13:46;;;;;;;1.60;1.38;;;;;;;;;;4244222;28;20055;-59
2023/05/27 08:16:06;;;;;;;1.80;1.70;;;;;;;;;;4244409;28;20079;-59
2023/05/27 08:18:27;;;;;;;2.08;1.88;;;;;;;;;;4239191;28;20103;-59
2023/05/27 08:20:49;;;;;;;2.05;1.85;;;;;;;;;;4243476;28;20273;-59
2023/05/27 08:23:10;;;;;;;1.90;1.80;;;;;;;;;;4241728;28;20377;-59
2023/05/27 08:25:31;;;;;;;2.53;1.80;;;;;;;;;;4245476;28;20086;-59
2023/05/27 08:27:53;;;;;;;1.48;1.48;;;;;;;;;;4237186;28;20239;-59
2023/05/27 08:30:14;;;;;;;3.17;1.70;;;;;;;;;;4243003;28;20291;-59
2023/05/27 08:32:34;;;;;;;1.67;1.48;;;;;;;;;;4245389;28;20085;-59
2023/05/27 08:34:54;;;;;;;1.65;1.55;;;;;;;;;;4244833;28;20162;-58
2023/05/27 08:37:15;;;;;;;3.65;1.77;;;;;;;;;;4237002;28;20325;-60
2023/05/27 08:39:35;;;;;;;2.17;2.00;;;;;;;;;;4245172;28;20104;-59
2023/05/27 08:41:55;;;;;;;2.03;1.90;;;;;;;;;;4246732;28;20381;-59
2023/05/27 08:44:16;;;;;;;3.38;1.90;;;;;;;;;;4241399;28;20412;-60
2023/05/27 08:46:41;;;;;;;2.10;2.00;;;;;;;;;;4242213;28;20042;-60
2023/05/27 08:49:01;;;;;;;2.28;2.08;;;;;;;;;;4246128;28;20045;-59
2023/05/27 08:51:22;;;;;;;2.47;1.83;;;;;;;;;;4241806;28;20306;-59
2023/05/27 08:53:43;;;;;;;2.83;1.75;;;;;;;;;;4235711;28;20093;-59
2023/05/27 08:56:05;;;;;;;2.67;1.63;;;;;;;;;;4246415;28;20046;-60
2023/05/27 08:58:27;;;;;;;1.75;1.75;;;;;;;;;;4245528;28;20057;-59
2023/05/27 09:00:47;;;;;;;1.60;1.55;;;;;;;;;;4240943;28;20385;-60
2023/05/27 09:03:08;;;;;;;3.88;1.85;;;;;;;;;;4234975;28;20362;-59
2023/05/27 09:05:29;;;;;;;1.20;1.20;;;;;;;;;;4245810;28;20230;-59
2023/05/27 09:07:49;;;;;;;2.00;1.63;;;;;;;;;;4245496;28;20235;-60
2023/05/27 09:10:09;;;;;;;2.65;1.70;;;;;;;;;;4247398;28;20076;-59
2023/05/27 09:12:29;;;;;;;5.38;1.85;;;;;;;;;;4245655;28;20085;-59
2023/05/27 09:14:50;;;;;;;2.05;1.95;;;;;;;;;;4245897;27;20064;-59
2023/05/27 09:17:11;;;;;;;1.83;1.73;;;;;;;;;;4244462;28;20370;-59
2023/05/27 09:19:31;;;;;;;2.00;1.90;;;;;;;;;;4242917;28;20084;-59
2023/05/27 09:21:54;;;;;;;2.03;1.85;;;;;;;;;;4242174;28;20085;-59
2023/05/27 09:24:15;;;;;;;3.55;1.92;;;;;;;;;;4245045;28;20042;-59
2023/05/27 09:26:35;;;;;;;1.15;1.15;;;;;;;;;;4239032;28;20122;-59
2023/05/27 09:28:57;;;;;;;6.93;2.05;;;;;;;;;;4239542;28;20050;-60
2023/05/27 09:31:18;;;;;;;3.33;1.60;;;;;;;;;;4240457;28;20269;-59
2023/05/27 09:33:40;;;;;;;2.55;1.67;;;;;;;;;;4241406;28;20050;-59
2023/05/27 09:36:01;;;;;;;1.55;1.55;;;;;;;;;;4236464;28;20099;-59
2023/05/27 09:38:21;;;;;;;1.48;1.40;;;;;;;;;;4238036;28;20051;-60
2023/05/27 09:40:44;;;;;;;2.22;1.20;;;;;;;;;;4236765;27;20046;-60
2023/05/27 09:43:05;;;;;;;1.92;1.83;;;;;;;;;;4236700;28;20415;-59
2023/05/27 09:45:25;;;;;;;2.28;1.50;;;;;;;;;;4241420;28;20302;-60
2023/05/27 09:47:50;;;;;;;1.73;1.63;;;;;;;;;;4244066;28;20051;-59
2023/05/27 09:50:14;;;;;;;1.15;1.15;;;;;;;;;;4242140;28;20234;-60
2023/05/27 09:52:35;;;;;;;1.55;1.50;;;;;;;;;;4238944;28;20067;-60
2023/05/27 09:55:04;;;;;;;3.25;1.50;;;;;;;;;;4242591;28;20085;-60
2023/05/27 09:57:25;;;;;;;1.77;1.65;;;;;;;;;;4241027;28;20038;-60
2023/05/27 09:59:46;;;;;;;2.15;1.40;;;;;;;;;;4239448;28;20232;-60
2023/05/27 10:02:07;;;;;;;2.15;1.55;;;;;;;;;;4241586;28;20046;-60
2023/05/27 10:04:29;;;;;;;2.75;1.33;;;;;;;;;;4238105;28;20051;-59
2023/05/27 10:06:50;;;;;;;3.58;1.58;;;;;;;;;;4234617;28;20074;-60
2023/05/27 10:09:12;;;;;;;1.75;1.65;;;;;;;;;;4239709;28;20389;-59
2023/05/27 10:11:38;;;;;;;2.80;1.40;;;;;;;;;;4240287;28;20055;-60
2023/05/27 10:14:00;;;;;;;1.55;1.38;;;;;;;;;;4233137;28;20111;-60
2023/05/27 10:16:21;;;;;;;2.17;1.33;;;;;;;;;;4232037;28;20050;-60
2023/05/27 10:18:42;;;;;;;1.67;1.57;;;;;;;;;;4240538;28;20122;-61
2023/05/27 10:21:05;;;;;;;2.78;1.30;;;;;;;;;;4235333;28;20207;-59
2023/05/27 10:23:26;;;;;;;1.38;1.38;;;;;;;;;;4229879;28;20047;-60
2023/05/27 10:25:48;;;;;;;1.93;1.63;;;;;;;;;;4241945;28;20051;-60
2023/05/27 10:28:08;;;;;;;1.85;1.05;;;;;;;;;;4237058;28;20362;-59
2023/05/27 10:30:28;;;;;;;1.23;1.23;;;;;;;;;;4248870;28;20042;-60
2023/05/27 10:32:52;;;;;;;1.10;1.10;;;;;;;;;;4248567;28;20042;-60
2023/05/27 10:35:13;;;;;;;1.50;1.20;;;;;;;;;;4250933;28;20071;-60
2023/05/27 10:37:35;;;;;;;1.27;1.10;;;;;;;;;;4249154;28;20402;-59
2023/05/27 10:39:56;;;;;;;1.20;1.10;;;;;;;;;;4244415;27;20089;-59
2023/05/27 10:42:23;;;;;;;1.67;1.23;;;;;;;;;;4243903;28;20112;-59
2023/05/27 10:44:43;;;;;;;5.93;1.15;;;;;;;;;;4244605;28;20046;-60
2023/05/27 10:47:04;;;;;;;1.20;1.20;;;;;;;;;;4242821;28;20103;-60
2023/05/27 10:49:27;;;;;;;1.30;1.00;;;;;;;;;;4240476;28;20358;-59
2023/05/27 10:51:48;;;;;;;1.20;1.20;;;;;;;;;;4241242;28;20074;-60
2023/05/27 10:54:08;;;;;;;1.73;1.40;;;;;;;;;;4241816;28;20097;-60
2023/05/27 10:56:32;;;;;;;1.85;1.35;;;;;;;;;;4240089;27;20366;-59
2023/05/27 10:58:52;;;;;;;1.88;1.35;;;;;;;;;;4238077;28;20047;-59
2023/05/27 11:01:15;;;;;;;0.90;0.90;;;;;;;;;;4240778;28;20365;-59
2023/05/27 11:03:35;;;;;;;1.65;1.00;;;;;;;;;;4239130;28;20093;-60
2023/05/27 11:06:06;;;;;;;1.10;1.00;;;;;;;;;;4234766;28;20059;-60
2023/05/27 11:08:26;;;;;;;1.33;1.20;;;;;;;;;;4239348;28;20050;-60
2023/05/27 11:10:47;;;;;;;1.13;1.13;;;;;;;;;;4240315;28;20057;-60
2023/05/27 11:13:07;;;;;;;1.08;1.00;;;;;;;;;;4239669;28;20062;-60
2023/05/27 11:15:27;;;;;;;1.85;1.75;;;;;;;;;;4235593;28;20080;-60
2023/05/27 11:17:47;;;;;;;1.08;1.08;;;;;;;;;;4243522;28;20043;-60
2023/05/27 11:20:08;;;;;;;2.13;1.35;;;;;;;;;;4244404;28;20054;-59
2023/05/27 11:22:30;;;;;;;3.70;0.90;;;;;;;;;;4238910;28;20100;-60
2023/05/27 11:24:58;;;;;;;1.00;1.00;;;;;;;;;;4236608;28;20043;-59
2023/05/27 11:27:18;;;;;;;0.98;0.90;;;;;;;;;;4237423;28;20243;-60
2023/05/27 11:29:38;;;;;;;1.25;0.90;;;;;;;;;;4242723;28;20047;-60
2023/05/27 11:31:59;;;;;;;2.17;1.10;;;;;;;;;;4237407;28;20107;-60
2023/05/27 11:34:20;;;;;;;1.02;1.02;;;;;;;;;;4238761;28;20303;-60
2023/05/27 11:36:41;;;;;;;1.20;1.20;;;;;;;;;;4238043;28;20140;-60
2023/05/27 11:39:01;;;;;;;1.25;1.15;;;;;;;;;;4241838;28;20043;-60
2023/05/27 11:41:23;;;;;;;3.75;1.45;;;;;;;;;;4247397;28;20070;-59
2023/05/27 11:43:56;;;;;;;1.30;1.20;;;;;;;;;;4240570;28;20228;-59
2023/05/27 11:46:17;;;;;;;1.35;1.17;;;;;;;;;;4243758;28;20397;-60
2023/05/27 11:48:37;;;;;;;1.00;1.00;;;;;;;;;;4244578;28;20042;-59
2023/05/27 11:50:58;;;;;;;1.10;1.10;;;;;;;;;;4241287;28;20046;-60
2023/05/27 11:53:18;;;;;;;1.02;1.00;;;;;;;;;;4246282;28;20055;-60
2023/05/27 11:55:39;;;;;;;1.95;1.10;;;;;;;;;;4241991;28;20090;-59
2023/05/27 11:58:00;;;;;;;1.17;1.10;;;;;;;;;;4247074;28;20043;-60
2023/05/27 12:00:20;;;;;;;2.47;1.45;;;;;;;;;;4242332;28;20277;-60
2023/05/27 12:02:41;;;;;;;1.33;1.23;;;;;;;;;;4245949;28;20054;-60
2023/05/27 12:05:01;;;;;;;1.70;1.00;;;;;;;;;;4246742;28;20050;-59
2023/05/27 12:07:22;;;;;;;1.00;1.00;;;;;;;;;;4244844;28;20085;-60
2023/05/27 12:09:42;;;;;;;1.02;1.00;;;;;;;;;;4243938;28;20089;-60
2023/05/27 12:12:03;;;;;;;1.20;1.02;;;;;;;;;;4242954;28;20296;-60
2023/05/27 12:14:23;;;;;;;3.95;1.00;;;;;;;;;;4243603;28;20082;-59
2023/05/27 12:16:43;;;;;;;1.00;1.00;;;;;;;;;;4239434;28;20392;-60
2023/05/27 12:19:03;;;;;;;1.08;1.08;;;;;;;;;;4246019;28;20066;-60
2023/05/27 12:21:24;;;;;;;1.33;1.20;;;;;;;;;;4238300;28;20239;-60
2023/05/27 12:23:44;;;;;;;1.38;0.90;;;;;;;;;;4244467;28;20087;-59
2023/05/27 12:26:07;;;;;;;2.00;1.45;;;;;;;;;;4242729;28;20077;-59
2023/05/27 12:28:27;;;;;;;1.10;1.00;;;;;;;;;;4240593;28;20047;-60
2023/05/27 12:30:48;;;;;;;1.25;1.15;;;;;;;;;;4236939;28;20067;-59
2023/05/27 12:33:08;;;;;;;6.18;1.20;;;;;;;;;;4244515;28;20078;-60
2023/05/27 12:35:28;;;;;;;1.23;1.10;;;;;;;;;;4245477;28;20094;-60
2023/05/27 12:37:49;;;;;;;1.00;1.00;;;;;;;;;;4239754;28;20082;-60
2023/05/27 12:40:14;;;;;;;1.15;1.10;;;;;;;;;;4241112;27;20062;-59
2023/05/27 12:42:34;;;;;;;1.10;1.10;;;;;;;;;;4242604;28;20427;-60
2023/05/27 12:44:55;;;;;;;1.77;1.08;;;;;;;;;;4245371;28;20100;-59
2023/05/27 12:47:15;;;;;;;1.88;1.33;;;;;;;;;;4237093;28;20078;-60
2023/05/27 12:49:36;;;;;;;1.33;1.17;;;;;;;;;;4238750;28;20068;-60
2023/05/27 12:51:57;;;;;;;1.20;1.10;;;;;;;;;;4242646;28;20107;-60
2023/05/27 12:54:17;;;;;;;2.35;1.30;;;;;;;;;;4243391;28;20123;-59
2023/05/27 12:56:37;;;;;;;3.15;0.98;;;;;;;;;;4235039;28;20074;-59
2023/05/27 12:58:58;;;;;;;4.20;1.42;;;;;;;;;;4241376;28;20054;-60
2023/05/27 13:01:18;;;;;;;3.38;1.65;;;;;;;;;;4240997;28;20043;-60
2023/05/27 13:03:39;;;;;;;2.35;1.00;;;;;;;;;;4241607;28;20038;-60
2023/05/27 13:06:00;;;;;;;1.10;1.00;;;;;;;;;;4243975;28;20043;-60
2023/05/27 13:08:21;;;;;;;1.85;1.02;;;;;;;;;;4237377;28;20247;-60
2023/05/27 13:10:41;;;;;;;1.48;0.90;;;;;;;;;;4235777;28;20082;-61
2023/05/27 13:13:02;;;;;;;1.67;1.00;;;;;;;;;;4241397;28;20065;-61
2023/05/27 13:15:23;;;;;;;1.00;1.00;;;;;;;;;;4238313;28;20230;-61
2023/05/27 13:17:45;;;;;;;1.38;1.00;;;;;;;;;;4237271;28;20400;-61
2023/05/27 13:20:06;;;;;;;3.28;1.45;;;;;;;;;;4237561;28;20082;-61
2023/05/27 13:22:26;;;;;;;1.13;1.10;;;;;;;;;;4243133;28;20132;-60
2023/05/27 13:24:47;;;;;;;2.47;1.00;;;;;;;;;;4240470;28;20310;-60
2023/05/27 13:27:08;;;;;;;2.55;1.10;;;;;;;;;;4234414;28;20054;-60
2023/05/27 13:29:28;;;;;;;1.00;1.00;;;;;;;;;;4242243;28;20045;-60
2023/05/27 13:31:48;;;;;;;1.38;1.27;;;;;;;;;;4238059;28;20070;-60
2023/05/27 13:34:08;;;;;;;1.45;1.20;;;;;;;;;;4238016;28;20066;-60
2023/05/27 13:36:28;;;;;;;1.42;0.90;;;;;;;;;;4245635;28;20142;-60
2023/05/27 13:38:48;;;;;;;4.47;1.83;;;;;;;;;;4247786;28;20086;-60
2023/05/27 13:41:08;;;;;;;1.50;1.40;;;;;;;;;;4248522;28;20108;-60
2023/05/27 13:43:29;;;;;;;3.15;1.75;;;;;;;;;;4243569;28;20099;-60
2023/05/27 13:45:49;;;;;;;2.78;1.05;;;;;;;;;;4245602;28;20043;-61
2023/05/27 13:48:14;;;;;;;1.25;1.20;;;;;;;;;;4245708;28;20094;-60
2023/05/27 13:50:35;;;;;;;1.15;1.10;;;;;;;;;;4241232;28;20082;-60
2023/05/27 13:52:55;;;;;;;1.70;1.10;;;;;;;;;;4244332;28;20081;-60
2023/05/27 13:55:15;;;;;;;1.10;1.10;;;;;;;;;;4244790;28;20055;-60
2023/05/27 13:57:36;;;;;;;1.60;1.00;;;;;;;;;;4238735;28;20039;-60
2023/05/27 13:59:56;;;;;;;0.98;0.98;;;;;;;;;;4238548;28;20046;-60
2023/05/27 14:02:16;;;;;;;1.00;1.00;;;;;;;;;;4240758;28;20235;-60
2023/05/27 14:04:36;;;;;;;1.25;1.20;;;;;;;;;;4239768;28;20108;-60